首页
METAR-TAF:

METAR-TAF

机场 :

汉堡机场

汉堡, 德国

纬度: 53-38N, 经度: 010-00E, 海拔: 16米

当前天气观测

该预报发布于42分钟前的14:50 UTC
风速9节,风向西,在南转西南西北之间变化
温度 22°C
湿度 41%
气压 1022 hPa
能见度10公里或以上
1500米以下无云,无积雨云

METAR: EDDH 081450Z 27009KT 210V310 CAVOK 22/08 Q1022 BECMG 33005KT

时间: 17:32 (15:32 UTC)

预报

该预报发布于4小时和32分钟前的11:00 UTC
预报有效从08日的 12点(UTC)到 09日的 18点(UTC)
风速8节,风向
能见度10公里或以上
1500米以下无云,无积雨云
成为
从 08日的 14点(UTC)到 08日的 16点(UTC)
风速4节,风向西转西北
几率 30% :
短暂存在
从 09日的 03点(UTC)到 09日的 05点(UTC)
能見度: 3500
轻雾
成为
从 09日的 07点(UTC)到 09日的 09点(UTC)
风速10节,风向西北
几率 30% :
短暂存在
从 09日的 07点(UTC)到 09日的 10点(UTC)
多云层高于1400英尺

TAF: EDDH 081100Z 0812/0918 19008KT CAVOK BECMG 0814/0816 30004KT PROB30 TEMPO 0903/0905 3500 BR BECMG 0907/0909 31010KT PROB30 TEMPO 0907/0910 BKN014

超过4000个机场的气象观测和天气预报(METAR&TAF报告)。

可查询的气象台以黄色和红色小点在地图上表示。

将鼠标移到小点上方,可查看气象台名称。

然后点击查看天气观测和预报。

如需切换地图:点击带黑十字的绿色按钮放大地图;点击带横线的绿色按钮缩小地图;或者点击绿色箭头查看邻近地区的地图。


METAR-TAF: